createdAt,value
2022-12-11T00:01:01.606Z,98945.44
2022-12-11T00:03:31.368Z,98948.03
2022-12-11T00:06:00.719Z,98948.91
2022-12-11T00:08:30.516Z,98948.09
2022-12-11T00:11:00.100Z,98949.81
2022-12-11T00:13:30.234Z,98945.47
2022-12-11T00:16:02.915Z,98944.59
2022-12-11T00:18:32.270Z,98948.78
2022-12-11T00:21:06.514Z,98954.94
2022-12-11T00:23:39.917Z,98958.38
2022-12-11T00:26:13.748Z,98961.88
2022-12-11T00:28:44.929Z,98968.78
2022-12-11T00:31:20.507Z,98961.88
2022-12-11T00:33:51.566Z,98951.56
2022-12-11T00:36:24.327Z,98958.47
2022-12-11T00:38:55.263Z,98962.84
2022-12-11T00:41:24.974Z,98960.28
2022-12-11T00:43:54.599Z,98959.47
2022-12-11T00:46:24.537Z,98966.34
2022-12-11T00:48:54.766Z,98964.63
2022-12-11T00:51:24.843Z,98971.47
2022-12-11T00:53:54.784Z,98967.19
2022-12-11T00:56:26.285Z,98974.94
2022-12-11T00:58:56.185Z,98980.19
2022-12-11T01:01:27.124Z,98979.28
2022-12-11T01:03:57.093Z,98988.78
2022-12-11T01:06:28.193Z,98992.19
2022-12-11T01:09:16.884Z,98994.81
2022-12-11T01:11:46.427Z,98997.41
2022-12-11T01:14:16.240Z,99001.75
2022-12-11T01:16:45.906Z,98996.56
2022-12-11T01:19:15.935Z,99005.16
2022-12-11T01:21:45.717Z,99005.22
2022-12-11T01:24:15.407Z,99001.84
2022-12-11T01:26:44.761Z,99005.22
2022-12-11T01:29:14.671Z,99017.25
2022-12-11T01:31:44.075Z,99020.69
2022-12-11T01:34:13.727Z,99015.56
2022-12-11T01:36:43.505Z,99017.25
2022-12-11T01:39:13.245Z,99021.59
2022-12-11T01:41:43.032Z,99028.53
2022-12-11T01:44:18.467Z,99029.41
2022-12-11T01:46:48.214Z,99025.94
2022-12-11T01:49:20.028Z,99029.38
2022-12-11T01:52:00.266Z,99032.84
2022-12-11T01:54:31.104Z,99032.81
2022-12-11T01:57:06.937Z,99035.34
2022-12-11T01:59:40.264Z,99037.94
2022-12-11T02:02:22.047Z,99039.63
2022-12-11T02:04:51.897Z,99039.72
2022-12-11T02:07:21.333Z,99050.00
2022-12-11T02:09:52.032Z,99045.69
2022-12-11T02:12:45.896Z,99060.28
2022-12-11T02:15:30.778Z,99055.16
2022-12-11T02:18:30.705Z,99064.50
2022-12-11T02:21:12.365Z,99067.97
2022-12-11T02:23:51.206Z,99069.69
2022-12-11T02:26:51.610Z,99075.69
2022-12-11T02:29:27.656Z,99075.69
2022-12-11T02:32:21.067Z,99077.41
2022-12-11T02:35:02.568Z,99079.06
2022-12-11T02:37:38.449Z,99080.81
2022-12-11T02:40:12.646Z,99095.38
2022-12-11T02:42:45.390Z,99097.97
2022-12-11T02:45:16.348Z,99101.41
2022-12-11T02:47:49.814Z,99103.13
2022-12-11T02:50:23.067Z,99102.25
2022-12-11T02:52:57.482Z,99098.88
2022-12-11T02:55:29.904Z,99104.78
2022-12-11T02:58:22.466Z,99112.53
2022-12-11T03:00:52.908Z,99113.31
2022-12-11T03:03:23.268Z,99113.38
2022-12-11T03:05:53.219Z,99120.25
2022-12-11T03:08:22.623Z,99120.25
2022-12-11T03:10:52.579Z,99121.94
2022-12-11T03:13:24.311Z,99126.16
2022-12-11T03:16:25.101Z,99128.63
2022-12-11T03:19:27.178Z,99122.53
2022-12-11T03:22:25.951Z,99117.44
2022-12-11T03:25:04.535Z,99126.88
2022-12-11T03:28:02.158Z,99128.47
2022-12-11T03:30:37.516Z,99135.47
2022-12-11T03:33:31.162Z,99139.84
2022-12-11T03:36:09.074Z,99143.31
2022-12-11T03:39:01.306Z,99145.69
2022-12-11T03:41:35.579Z,99145.63
2022-12-11T03:44:05.716Z,99155.13
2022-12-11T03:46:40.050Z,99154.94
2022-12-11T03:49:24.500Z,99158.34
2022-12-11T03:51:56.624Z,99160.94
2022-12-11T03:54:27.272Z,99161.81
2022-12-11T03:56:59.482Z,99169.72
2022-12-11T03:59:29.584Z,99169.56
2022-12-11T04:01:59.488Z,99176.44
2022-12-11T04:04:31.864Z,99180.66
2022-12-11T04:07:01.510Z,99184.84
2022-12-11T04:09:31.215Z,99187.56
2022-12-11T04:12:01.355Z,99194.16
2022-12-11T04:14:49.375Z,99197.75
2022-12-11T04:17:39.255Z,99200.13
2022-12-11T04:20:27.441Z,99195.66
2022-12-11T04:23:15.968Z,99196.44
2022-12-11T04:25:45.849Z,99211.25
2022-12-11T04:28:15.311Z,99206.84
2022-12-11T04:30:51.133Z,99200.53
2022-12-11T04:33:20.634Z,99208.28
2022-12-11T04:35:50.740Z,99217.84
2022-12-11T04:38:20.121Z,99211.44
2022-12-11T04:40:49.800Z,99207.91
2022-12-11T04:43:19.817Z,99219.03
2022-12-11T04:45:49.262Z,99218.91
2022-12-11T04:48:19.036Z,99218.75
2022-12-11T04:50:48.497Z,99215.97
2022-12-11T04:53:19.003Z,99214.94
2022-12-11T04:55:48.951Z,99209.91
2022-12-11T04:58:18.897Z,99205.38
2022-12-11T05:00:49.055Z,99204.34
2022-12-11T05:03:20.144Z,99210.53
2022-12-11T05:05:54.744Z,99201.59
2022-12-11T05:08:25.489Z,99198.03
2022-12-11T05:10:59.801Z,99203.09
2022-12-11T05:13:32.220Z,99194.44
2022-12-11T05:16:04.641Z,99193.25
2022-12-11T05:18:34.731Z,99194.69
2022-12-11T05:21:07.443Z,99189.22
2022-12-11T05:23:38.862Z,99181.72
2022-12-11T05:26:12.430Z,99182.97
2022-12-11T05:28:42.544Z,99191.34
2022-12-11T05:31:22.185Z,99195.34
2022-12-11T05:33:54.104Z,99196.19
2022-12-11T05:36:30.171Z,99191.59
2022-12-11T05:39:01.568Z,99192.63
2022-12-11T05:41:33.767Z,99189.78
2022-12-11T05:44:03.723Z,99188.09
2022-12-11T05:46:33.361Z,99182.66
2022-12-11T05:49:03.534Z,99184.91
2022-12-11T05:51:37.427Z,99182.22
2022-12-11T05:54:07.415Z,99182.06
2022-12-11T05:56:37.542Z,99185.31
2022-12-11T05:59:08.101Z,99178.53
2022-12-11T06:01:42.179Z,99173.09
2022-12-11T06:04:14.370Z,99178.22
2022-12-11T06:06:45.170Z,99178.44
2022-12-11T06:09:18.960Z,99178.09
2022-12-11T06:11:49.141Z,99169.38
2022-12-11T06:14:21.760Z,99173.63
2022-12-11T06:16:51.699Z,99157.31
2022-12-11T06:19:22.006Z,99160.16
2022-12-11T06:21:53.116Z,99155.72
2022-12-11T06:24:23.219Z,99152.56
2022-12-11T06:26:53.647Z,99136.47
2022-12-11T06:29:24.207Z,99134.53
2022-12-11T06:31:54.464Z,99132.09
2022-12-11T06:34:24.513Z,99131.84
2022-12-11T06:36:54.955Z,99128.25
2022-12-11T06:39:25.589Z,99128.16
2022-12-11T06:41:55.810Z,99133.19
2022-12-11T06:44:26.015Z,99131.16
2022-12-11T06:46:56.375Z,99124.00
2022-12-11T06:49:26.093Z,99121.31
2022-12-11T06:51:55.731Z,99125.16
2022-12-11T06:54:29.120Z,99120.50
2022-12-11T06:56:59.139Z,99122.88
2022-12-11T06:59:29.068Z,99121.41
2022-12-11T07:01:59.086Z,99109.28
2022-12-11T07:04:29.054Z,99101.78
2022-12-11T07:06:59.133Z,99099.53
2022-12-11T07:09:29.437Z,99094.84
2022-12-11T07:11:59.220Z,99089.97
2022-12-11T07:14:28.812Z,99087.53
2022-12-11T07:16:59.339Z,99090.28
2022-12-11T07:19:28.980Z,99081.72
2022-12-11T07:21:58.571Z,99082.59
2022-12-11T07:24:28.265Z,99077.06
2022-12-11T07:26:57.922Z,99074.56
2022-12-11T07:29:27.761Z,99076.75
2022-12-11T07:31:57.158Z,99067.25
2022-12-11T07:34:26.674Z,99065.25
2022-12-11T07:36:56.599Z,99065.41
2022-12-11T07:39:26.295Z,99057.84
2022-12-11T07:41:56.544Z,99062.78
2022-12-11T07:44:26.199Z,99047.41
2022-12-11T07:46:55.518Z,99052.09
2022-12-11T07:49:25.340Z,99051.53
2022-12-11T07:51:54.695Z,99045.16
2022-12-11T07:54:24.363Z,99039.72
2022-12-11T07:56:54.306Z,99038.03
2022-12-11T07:59:23.923Z,99040.31
2022-12-11T08:01:53.530Z,99034.16
2022-12-11T08:04:24.061Z,99034.88
2022-12-11T08:06:54.199Z,99023.13
2022-12-11T08:09:23.690Z,99016.88
2022-12-11T08:11:54.614Z,99013.25
2022-12-11T08:14:24.156Z,99009.91
2022-12-11T08:16:54.416Z,99010.56
2022-12-11T08:19:24.272Z,99002.41
2022-12-11T08:21:53.947Z,98997.63
2022-12-11T08:24:24.419Z,98990.50
2022-12-11T08:26:53.857Z,98990.97
2022-12-11T08:29:24.357Z,98992.22
2022-12-11T08:31:53.900Z,98984.31
2022-12-11T08:34:23.396Z,98978.13
2022-12-11T08:36:53.771Z,98979.69
2022-12-11T08:39:23.676Z,98974.47
2022-12-11T08:41:52.990Z,98975.38
2022-12-11T08:44:26.368Z,98970.94
2022-12-11T08:46:56.534Z,98958.38
2022-12-11T08:49:28.665Z,98955.75
2022-12-11T08:52:02.494Z,98959.22
2022-12-11T08:54:33.726Z,98952.75
2022-12-11T08:57:03.731Z,98947.66
2022-12-11T08:59:33.385Z,98944.41
2022-12-11T09:02:03.016Z,98944.00
2022-12-11T09:04:32.393Z,98935.25
2022-12-11T09:07:02.156Z,98939.66
2022-12-11T09:09:31.989Z,98938.50
2022-12-11T09:12:02.821Z,98930.50
2022-12-11T09:14:32.898Z,98927.41
2022-12-11T09:17:02.461Z,98921.13
2022-12-11T09:19:32.636Z,98913.50
2022-12-11T09:22:02.787Z,98921.13
2022-12-11T09:24:32.403Z,98917.44
2022-12-11T09:27:01.916Z,98917.28
2022-12-11T09:29:32.106Z,98908.69
2022-12-11T09:32:02.022Z,98909.81
2022-12-11T09:34:31.530Z,98908.19
2022-12-11T09:37:01.165Z,98902.88
2022-12-11T09:39:30.814Z,98907.50
2022-12-11T09:42:16.651Z,98899.91
2022-12-11T09:44:58.488Z,98893.41
2022-12-11T09:47:33.597Z,98897.94
2022-12-11T09:50:12.915Z,98899.13
2022-12-11T09:52:58.481Z,98898.75
2022-12-11T09:55:38.293Z,98892.94
2022-12-11T09:58:33.218Z,98900.56
2022-12-11T10:01:11.941Z,98890.25
2022-12-11T10:04:12.859Z,98882.25
2022-12-11T10:07:32.045Z,98887.91
2022-12-11T10:10:25.747Z,98880.78
2022-12-11T10:13:17.545Z,98880.06
2022-12-11T10:16:00.900Z,98875.09
2022-12-11T10:18:32.925Z,98876.50
2022-12-11T10:21:04.779Z,98880.03
2022-12-11T10:23:56.824Z,98877.31
2022-12-11T10:26:26.470Z,98878.78
2022-12-11T10:29:00.841Z,98874.16
2022-12-11T10:31:43.413Z,98867.22
2022-12-11T10:34:20.082Z,98872.72
2022-12-11T10:36:49.928Z,98868.81
2022-12-11T10:39:24.564Z,98858.16
2022-12-11T10:41:56.698Z,98865.63
2022-12-11T10:44:32.304Z,98860.16
2022-12-11T10:47:15.674Z,98857.59
2022-12-11T10:49:54.044Z,98858.91
2022-12-11T10:52:33.322Z,98849.13
2022-12-11T10:55:09.643Z,98846.28
2022-12-11T10:57:40.913Z,98842.38
2022-12-11T11:00:32.262Z,98846.56
2022-12-11T11:03:03.742Z,98854.06
2022-12-11T11:05:39.398Z,98847.44
2022-12-11T11:08:11.689Z,98850.03
2022-12-11T11:10:57.148Z,98842.94
2022-12-11T11:13:30.183Z,98851.16
2022-12-11T11:16:05.454Z,98855.63
2022-12-11T11:18:36.034Z,98861.34
2022-12-11T11:21:06.939Z,98853.75
2022-12-11T11:23:39.821Z,98854.13
2022-12-11T11:26:14.250Z,98851.72
2022-12-11T11:28:50.933Z,98848.16
2022-12-11T11:31:32.134Z,98846.63
2022-12-11T11:34:08.936Z,98847.47
2022-12-11T11:36:40.627Z,98838.50
2022-12-11T11:39:19.815Z,98844.34
2022-12-11T11:41:58.893Z,98838.53
2022-12-11T11:44:40.348Z,98840.50
2022-12-11T11:47:19.418Z,98845.03
2022-12-11T11:50:01.107Z,98839.19
2022-12-11T11:53:04.115Z,98840.31
2022-12-11T11:55:51.414Z,98837.44
2022-12-11T11:58:30.258Z,98839.50
2022-12-11T12:00:59.888Z,98834.03
2022-12-11T12:03:31.851Z,98834.09
2022-12-11T12:06:29.107Z,98833.03
2022-12-11T12:09:43.851Z,98822.72
2022-12-11T12:12:41.237Z,98816.78
2022-12-11T12:15:39.739Z,98822.69
2022-12-11T12:18:30.665Z,98820.00
2022-12-11T12:21:29.176Z,98822.03
2022-12-11T12:23:58.805Z,98814.00
2022-12-11T12:26:35.175Z,98816.50
2022-12-11T12:29:22.979Z,98811.06
2022-12-11T12:32:07.090Z,98818.28
2022-12-11T12:34:54.488Z,98817.19
2022-12-11T12:37:51.128Z,98819.34
2022-12-11T12:40:46.354Z,98816.00
2022-12-11T12:43:28.655Z,98818.81
2022-12-11T12:46:35.317Z,98818.38
2022-12-11T12:49:09.216Z,98820.75
2022-12-11T12:51:40.296Z,98827.47
2022-12-11T12:54:15.644Z,98837.59
2022-12-11T12:56:48.342Z,98826.50
2022-12-11T12:59:21.927Z,98829.47
2022-12-11T13:02:04.803Z,98837.66
2022-12-11T13:04:55.898Z,98845.63
2022-12-11T13:07:32.477Z,98837.97
2022-12-11T13:10:43.591Z,98840.69
2022-12-11T13:13:36.923Z,98848.38
2022-12-11T13:16:18.779Z,98851.16
2022-12-11T13:18:51.727Z,98843.69
2022-12-11T13:21:30.282Z,98844.63
2022-12-11T13:24:29.762Z,98843.66
2022-12-11T13:27:13.908Z,98856.69
2022-12-11T13:29:44.525Z,98852.72
2022-12-11T13:32:20.116Z,98849.97
2022-12-11T13:35:02.050Z,98855.94
2022-12-11T13:37:47.167Z,98848.41
2022-12-11T13:40:27.745Z,98850.22
2022-12-11T13:43:07.456Z,98846.88
2022-12-11T13:45:46.629Z,98848.81
2022-12-11T13:48:41.709Z,98853.22
2022-12-11T13:51:19.755Z,98857.56
2022-12-11T13:53:50.129Z,98847.56
2022-12-11T13:56:24.018Z,98843.88
2022-12-11T13:58:53.621Z,98852.75
2022-12-11T14:01:28.782Z,98848.25
2022-12-11T14:04:06.024Z,98861.91
2022-12-11T14:06:38.161Z,98860.44
2022-12-11T14:09:09.861Z,98862.25
2022-12-11T14:11:44.545Z,98860.44
2022-12-11T14:14:30.488Z,98867.28
2022-12-11T14:17:01.145Z,98867.56
2022-12-11T14:19:31.225Z,98862.47
2022-12-11T14:22:09.194Z,98865.44
2022-12-11T14:24:49.762Z,98863.16
2022-12-11T14:27:20.898Z,98865.69
2022-12-11T14:29:51.286Z,98869.38
2022-12-11T14:32:47.457Z,98870.56
2022-12-11T14:35:32.865Z,98871.53
2022-12-11T14:38:15.717Z,98867.38
2022-12-11T14:40:50.824Z,98871.97
2022-12-11T14:43:29.165Z,98870.97
2022-12-11T14:46:07.912Z,98876.25
2022-12-11T14:48:49.447Z,98883.06
2022-12-11T14:51:21.044Z,98879.97
2022-12-11T14:53:54.296Z,98878.22
2022-12-11T14:56:27.462Z,98872.16
2022-12-11T14:59:03.141Z,98884.28
2022-12-11T15:01:37.419Z,98885.94
2022-12-11T15:04:21.599Z,98879.91
2022-12-11T15:06:53.599Z,98874.84
2022-12-11T15:09:31.116Z,98880.81
2022-12-11T15:12:23.408Z,98876.25
2022-12-11T15:15:02.193Z,98876.59
2022-12-11T15:17:34.602Z,98871.72
2022-12-11T15:20:12.923Z,98879.28
2022-12-11T15:22:45.851Z,98876.91
2022-12-11T15:25:28.673Z,98880.31
2022-12-11T15:27:59.866Z,98882.78
2022-12-11T15:30:33.527Z,98878.13
2022-12-11T15:33:13.050Z,98888.38
2022-12-11T15:35:58.375Z,98878.81
2022-12-11T15:38:34.310Z,98881.59
2022-12-11T15:41:05.690Z,98886.00
2022-12-11T15:43:39.395Z,98884.28
2022-12-11T15:46:10.168Z,98888.72
2022-12-11T15:48:39.971Z,98892.41
2022-12-11T15:51:10.717Z,98891.63
2022-12-11T15:53:40.658Z,98893.28
2022-12-11T15:56:18.002Z,98886.88
2022-12-11T15:58:50.157Z,98881.00
2022-12-11T16:01:20.090Z,98894.28
2022-12-11T16:03:51.666Z,98898.56
2022-12-11T16:06:21.922Z,98892.44
2022-12-11T16:08:51.961Z,98895.03
2022-12-11T16:11:22.519Z,98893.34
2022-12-11T16:13:52.854Z,98896.84
2022-12-11T16:16:23.064Z,98890.75
2022-12-11T16:18:53.713Z,98894.13
2022-12-11T16:21:30.349Z,98896.84
2022-12-11T16:24:00.974Z,98897.84
2022-12-11T16:26:31.371Z,98895.25
2022-12-11T16:29:02.999Z,98903.03
2022-12-11T16:31:34.564Z,98902.34
2022-12-11T16:34:06.413Z,98895.50
2022-12-11T16:36:38.193Z,98897.94
2022-12-11T16:39:09.990Z,98898.91
2022-12-11T16:41:40.754Z,98892.06
2022-12-11T16:44:11.937Z,98893.78
2022-12-11T16:46:42.202Z,98899.94
2022-12-11T16:49:12.756Z,98893.00
2022-12-11T16:51:44.198Z,98889.59
2022-12-11T16:54:15.199Z,98891.34
2022-12-11T16:56:45.610Z,98893.22
2022-12-11T16:59:15.842Z,98899.28
2022-12-11T17:01:46.236Z,98898.69
2022-12-11T17:04:16.635Z,98893.38
2022-12-11T17:06:47.379Z,98890.94
2022-12-11T17:09:17.499Z,98888.31
2022-12-11T17:11:47.218Z,98897.13
2022-12-11T17:14:16.904Z,98891.91
2022-12-11T17:16:47.242Z,98898.78
2022-12-11T17:19:18.475Z,98898.78
2022-12-11T17:21:51.817Z,98898.06
2022-12-11T17:24:22.545Z,98898.13
2022-12-11T17:26:52.506Z,98893.91
2022-12-11T17:29:23.356Z,98900.88
2022-12-11T17:31:53.150Z,98905.44
2022-12-11T17:34:23.752Z,98902.84
2022-12-11T17:36:53.974Z,98898.59
2022-12-11T17:39:24.533Z,98898.66
2022-12-11T17:41:54.407Z,98898.75
2022-12-11T17:44:24.467Z,98894.56
2022-12-11T17:46:54.619Z,98889.44
2022-12-11T17:49:23.981Z,98893.81
2022-12-11T17:51:56.803Z,98894.00
2022-12-11T17:54:27.477Z,98890.53
2022-12-11T17:56:57.753Z,98894.06
2022-12-11T17:59:27.577Z,98893.34
2022-12-11T18:01:57.288Z,98892.97
2022-12-11T18:04:27.378Z,98898.19
2022-12-11T18:06:57.440Z,98897.25
2022-12-11T18:09:27.020Z,98892.97
2022-12-11T18:11:56.678Z,98887.72
2022-12-11T18:14:26.834Z,98897.13
2022-12-11T18:16:56.428Z,98893.69
2022-12-11T18:19:28.339Z,98898.06
2022-12-11T18:21:58.218Z,98897.41
2022-12-11T18:24:32.997Z,98901.22
2022-12-11T18:27:03.674Z,98896.94
2022-12-11T18:29:33.495Z,98898.66
2022-12-11T18:32:02.889Z,98886.56
2022-12-11T18:34:32.724Z,98887.47
2022-12-11T18:37:03.572Z,98890.00
2022-12-11T18:39:33.344Z,98885.78
2022-12-11T18:42:31.793Z,98882.41
2022-12-11T18:44:54.621Z,98879.09
2022-12-11T18:47:24.793Z,98877.31
2022-12-11T18:49:54.130Z,98879.91
2022-12-11T18:52:24.029Z,98875.56
2022-12-11T18:54:53.688Z,98874.72
2022-12-11T18:57:23.320Z,98877.25
2022-12-11T18:59:54.492Z,98879.72
2022-12-11T19:02:24.345Z,98872.75
2022-12-11T19:04:54.119Z,98874.34
2022-12-11T19:07:23.736Z,98867.50
2022-12-11T19:09:53.573Z,98856.41
2022-12-11T19:12:23.290Z,98861.59
2022-12-11T19:14:52.611Z,98859.84
2022-12-11T19:17:22.423Z,98867.63
2022-12-11T19:19:51.748Z,98871.09
2022-12-11T19:22:21.722Z,98865.91
2022-12-11T19:24:51.709Z,98866.84
2022-12-11T19:27:21.340Z,98869.47
2022-12-11T19:29:51.348Z,98870.22
2022-12-11T19:32:21.007Z,98869.41
2022-12-11T19:34:55.346Z,98866.66
2022-12-11T19:37:25.029Z,98870.47
2022-12-11T19:39:54.704Z,98878.28
2022-12-11T19:42:24.193Z,98869.63
2022-12-11T19:44:53.741Z,98866.09
2022-12-11T19:47:23.510Z,98863.56
2022-12-11T19:49:53.186Z,98861.84
2022-12-11T19:52:23.213Z,98867.88
2022-12-11T19:54:52.858Z,98859.31
2022-12-11T19:57:22.458Z,98863.63
2022-12-11T19:59:57.065Z,98863.75
2022-12-11T20:02:27.738Z,98868.06
2022-12-11T20:04:57.718Z,98859.38
2022-12-11T20:07:30.671Z,98862.81
2022-12-11T20:10:01.738Z,98870.66
2022-12-11T20:12:31.567Z,98867.25
2022-12-11T20:15:00.895Z,98865.53
2022-12-11T20:17:31.025Z,98869.84
2022-12-11T20:20:01.040Z,98871.50
2022-12-11T20:22:31.056Z,98878.53
2022-12-11T20:25:00.682Z,98872.44
2022-12-11T20:27:30.244Z,98864.72
2022-12-11T20:29:59.931Z,98862.16
2022-12-11T20:32:29.764Z,98866.44
2022-12-11T20:34:59.686Z,98870.72
2022-12-11T20:37:30.452Z,98869.03
2022-12-11T20:40:00.078Z,98863.88
2022-12-11T20:42:29.629Z,98861.34
2022-12-11T20:44:59.392Z,98864.78
2022-12-11T20:47:29.077Z,98855.44
2022-12-11T20:49:58.607Z,98864.22
2022-12-11T20:52:29.436Z,98876.31
2022-12-11T20:54:59.095Z,98872.03
2022-12-11T20:57:28.695Z,98863.44
2022-12-11T21:00:00.443Z,98866.00
2022-12-11T21:02:31.910Z,98861.78
2022-12-11T21:05:01.757Z,98859.22
2022-12-11T21:07:31.241Z,98860.03
2022-12-11T21:10:00.794Z,98862.66
2022-12-11T21:12:31.786Z,98860.13
2022-12-11T21:15:01.577Z,98854.13
2022-12-11T21:17:31.268Z,98858.41
2022-12-11T21:20:01.016Z,98865.34
2022-12-11T21:22:30.487Z,98855.06
2022-12-11T21:25:00.164Z,98861.97
2022-12-11T21:27:29.803Z,98855.09
2022-12-11T21:29:59.312Z,98846.53
2022-12-11T21:32:31.312Z,98851.63
2022-12-11T21:35:01.207Z,98854.31
2022-12-11T21:37:30.734Z,98850.06
2022-12-11T21:40:01.438Z,98850.09
2022-12-11T21:42:31.336Z,98851.78
2022-12-11T21:47:50.723Z,98857.06
2022-12-11T21:50:20.731Z,98856.19
2022-12-11T21:52:51.542Z,98858.81
2022-12-11T21:55:21.452Z,98857.16
2022-12-11T21:57:51.888Z,98858.88
2022-12-11T22:00:21.930Z,98863.28
2022-12-11T22:02:51.802Z,98861.66
2022-12-11T22:05:21.474Z,98863.44
2022-12-11T22:07:51.360Z,98865.25
2022-12-11T22:10:20.980Z,98867.88
2022-12-11T22:12:50.748Z,98871.31
2022-12-11T22:15:20.525Z,98870.47
2022-12-11T22:17:49.870Z,98872.19
2022-12-11T22:20:19.873Z,98876.63
2022-12-11T22:22:49.548Z,98870.53
2022-12-11T22:25:19.342Z,98869.72
2022-12-11T22:27:49.273Z,98869.72
2022-12-11T22:30:18.918Z,98868.94
2022-12-11T22:32:50.724Z,98868.09
2022-12-11T22:35:25.556Z,98871.59
2022-12-11T22:37:56.975Z,98867.38
2022-12-11T22:40:27.737Z,98864.88
2022-12-11T22:42:58.663Z,98862.25
2022-12-11T22:45:28.506Z,98857.16
2022-12-11T22:47:58.245Z,98858.16
2022-12-11T22:50:27.873Z,98858.94
2022-12-11T22:52:57.490Z,98849.56
2022-12-11T22:55:27.323Z,98850.53
2022-12-11T22:57:57.104Z,98851.34
2022-12-11T23:00:26.920Z,98846.28
2022-12-11T23:02:57.013Z,98842.84
2022-12-11T23:05:26.740Z,98854.03
2022-12-11T23:07:56.644Z,98851.47
2022-12-11T23:10:26.385Z,98842.13
2022-12-11T23:12:56.199Z,98832.00
2022-12-11T23:15:25.841Z,98838.81
2022-12-11T23:17:55.174Z,98842.25
2022-12-11T23:20:25.257Z,98844.78
2022-12-11T23:22:57.207Z,98838.88
2022-12-11T23:25:28.956Z,98841.47
2022-12-11T23:27:59.124Z,98843.19
2022-12-11T23:30:28.985Z,98841.47
2022-12-11T23:32:58.521Z,98849.31
2022-12-11T23:35:28.093Z,98858.75
2022-12-11T23:37:58.059Z,98859.59
2022-12-11T23:40:27.665Z,98852.78
2022-12-11T23:42:56.953Z,98854.50
2022-12-11T23:45:26.748Z,98856.19
2022-12-11T23:47:56.942Z,98848.47
2022-12-11T23:50:27.842Z,98845.09
2022-12-11T23:52:57.501Z,98844.22
2022-12-11T23:55:26.970Z,98852.91
2022-12-11T23:57:56.797Z,98853.81
